SUAA    
 172200Z 04006KT CAVOK 13/07 Q1022     
 SUCA    
 172100Z 05004KT 9999 FEW026 BKN080 BKN200 14/08 Q1020  
 SUDU    
 172100Z 03006KT CAVOK 13/07 Q1022     
 SULS    
 180300Z 03009KT CAVOK 11/10 Q1021     
 SUMU    
 180300Z 03006KT CAVOK 11/09 Q1020 NOSIG    
 SUSO    
 172000Z 07012KT CAVOK 19/07 Q1020     
 SABE    
 180300Z 02005KT CAVOK 13/10 Q1018 NOSIG    
 SACO    
 180300Z 04013KT CAVOK 14/07 Q1013 NOSIG    
 SAEZ    
 180300Z 03009KT 360V060 CAVOK 14/08 Q1018 NOSIG   
 SAZB    
 142022Z 29011KT 9999 FEW045CB BKN070 13/07 Q1015 RETSRA  
 SAZM    
 180300Z 36007KT 320V040 CAVOK 11/08 Q1017    
 SBPA    
 180300Z 08006KT CAVOK 13/12 Q1025     
 SGAS    
 180300Z 08006KT 050V120 CAVOK 17/10 Q1019    
 SGES    
 180300Z 08005KT CAVOK 13/09 Q2021     
 SCCI    
 180300Z 32006KT CAVOK M02/M03 Q0997 NOSIG    
 SCRM    
 180300Z 29009KT 9999 OVC006 M03/M03 Q0996 NOSIG